sensor_id;sensor_type;location;lat;lon;timestamp;P1;durP1;ratioP1;P2;durP2;ratioP2
13566;SDS011;6855;48.112;11.298;2023-12-20T00:02:01;3.90;;;2.30;;
13566;SDS011;6855;48.112;11.298;2023-12-20T00:04:28;4.03;;;2.33;;
13566;SDS011;6855;48.112;11.298;2023-12-20T00:06:55;9.80;;;1.87;;
13566;SDS011;6855;48.112;11.298;2023-12-20T00:09:24;1.70;;;1.60;;
13566;SDS011;6855;48.112;11.298;2023-12-20T00:11:51;2.00;;;1.67;;
13566;SDS011;6855;48.112;11.298;2023-12-20T00:14:18;2.50;;;1.77;;
13566;SDS011;6855;48.112;11.298;2023-12-20T00:16:46;3.60;;;1.60;;
13566;SDS011;6855;48.112;11.298;2023-12-20T00:19:14;3.33;;;2.20;;
13566;SDS011;6855;48.112;11.298;2023-12-20T00:21:41;5.90;;;2.10;;
13566;SDS011;6855;48.112;11.298;2023-12-20T00:24:08;1.90;;;1.40;;
13566;SDS011;6855;48.112;11.298;2023-12-20T00:26:36;2.10;;;1.50;;
13566;SDS011;6855;48.112;11.298;2023-12-20T00:29:04;2.33;;;1.40;;
13566;SDS011;6855;48.112;11.298;2023-12-20T00:31:32;1.93;;;1.60;;
13566;SDS011;6855;48.112;11.298;2023-12-20T00:33:59;1.33;;;1.20;;
13566;SDS011;6855;48.112;11.298;2023-12-20T00:36:26;3.57;;;1.43;;
13566;SDS011;6855;48.112;11.298;2023-12-20T00:38:54;1.83;;;1.33;;
13566;SDS011;6855;48.112;11.298;2023-12-20T00:41:21;1.57;;;1.27;;
13566;SDS011;6855;48.112;11.298;2023-12-20T00:43:49;2.70;;;1.90;;
13566;SDS011;6855;48.112;11.298;2023-12-20T00:46:16;1.30;;;1.20;;
13566;SDS011;6855;48.112;11.298;2023-12-20T00:48:44;6.67;;;1.40;;
13566;SDS011;6855;48.112;11.298;2023-12-20T00:51:11;2.10;;;1.23;;
13566;SDS011;6855;48.112;11.298;2023-12-20T00:53:39;2.00;;;1.53;;
13566;SDS011;6855;48.112;11.298;2023-12-20T00:56:06;1.27;;;1.10;;
13566;SDS011;6855;48.112;11.298;2023-12-20T00:58:33;2.60;;;1.50;;
13566;SDS011;6855;48.112;11.298;2023-12-20T01:01:02;2.80;;;1.63;;
13566;SDS011;6855;48.112;11.298;2023-12-20T01:03:29;1.90;;;1.40;;
13566;SDS011;6855;48.112;11.298;2023-12-20T01:05:56;1.57;;;1.23;;
13566;SDS011;6855;48.112;11.298;2023-12-20T01:08:23;2.27;;;1.40;;
13566;SDS011;6855;48.112;11.298;2023-12-20T01:10:50;3.07;;;1.43;;
13566;SDS011;6855;48.112;11.298;2023-12-20T01:13:18;2.00;;;1.20;;
13566;SDS011;6855;48.112;11.298;2023-12-20T01:15:45;1.93;;;1.33;;
13566;SDS011;6855;48.112;11.298;2023-12-20T01:18:14;1.60;;;1.43;;
13566;SDS011;6855;48.112;11.298;2023-12-20T01:20:41;1.23;;;1.10;;
13566;SDS011;6855;48.112;11.298;2023-12-20T01:23:08;2.03;;;1.27;;
13566;SDS011;6855;48.112;11.298;2023-12-20T01:25:36;1.40;;;1.20;;
13566;SDS011;6855;48.112;11.298;2023-12-20T01:28:03;1.33;;;1.10;;
13566;SDS011;6855;48.112;11.298;2023-12-20T01:30:30;1.30;;;1.10;;
13566;SDS011;6855;48.112;11.298;2023-12-20T01:32:59;1.60;;;1.30;;
13566;SDS011;6855;48.112;11.298;2023-12-20T01:35:27;1.50;;;1.20;;
13566;SDS011;6855;48.112;11.298;2023-12-20T01:37:55;2.27;;;1.30;;
13566;SDS011;6855;48.112;11.298;2023-12-20T01:40:22;1.20;;;1.00;;
13566;SDS011;6855;48.112;11.298;2023-12-20T01:42:57;1.20;;;0.90;;
13566;SDS011;6855;48.112;11.298;2023-12-20T01:45:25;1.40;;;1.30;;
13566;SDS011;6855;48.112;11.298;2023-12-20T01:47:52;0.90;;;0.90;;
13566;SDS011;6855;48.112;11.298;2023-12-20T01:50:20;1.43;;;1.13;;
13566;SDS011;6855;48.112;11.298;2023-12-20T01:52:49;1.23;;;0.90;;
13566;SDS011;6855;48.112;11.298;2023-12-20T01:55:17;1.37;;;0.87;;
13566;SDS011;6855;48.112;11.298;2023-12-20T01:57:44;1.30;;;0.90;;
13566;SDS011;6855;48.112;11.298;2023-12-20T02:00:12;1.20;;;0.80;;
13566;SDS011;6855;48.112;11.298;2023-12-20T02:02:40;0.90;;;0.77;;
13566;SDS011;6855;48.112;11.298;2023-12-20T02:05:07;2.00;;;1.10;;
13566;SDS011;6855;48.112;11.298;2023-12-20T02:07:35;0.90;;;0.80;;
13566;SDS011;6855;48.112;11.298;2023-12-20T02:10:04;0.80;;;0.80;;
13566;SDS011;6855;48.112;11.298;2023-12-20T02:12:31;1.57;;;0.90;;
13566;SDS011;6855;48.112;11.298;2023-12-20T02:14:58;0.67;;;0.60;;
13566;SDS011;6855;48.112;11.298;2023-12-20T02:17:25;0.97;;;0.60;;
13566;SDS011;6855;48.112;11.298;2023-12-20T02:19:53;0.70;;;0.70;;
13566;SDS011;6855;48.112;11.298;2023-12-20T02:22:21;0.70;;;0.70;;
13566;SDS011;6855;48.112;11.298;2023-12-20T02:24:48;0.83;;;0.63;;
13566;SDS011;6855;48.112;11.298;2023-12-20T02:27:15;2.60;;;0.90;;
13566;SDS011;6855;48.112;11.298;2023-12-20T02:29:44;0.60;;;0.60;;
13566;SDS011;6855;48.112;11.298;2023-12-20T02:32:13;1.40;;;0.90;;
13566;SDS011;6855;48.112;11.298;2023-12-20T02:34:40;1.73;;;0.80;;
13566;SDS011;6855;48.112;11.298;2023-12-20T02:37:08;0.60;;;0.60;;
13566;SDS011;6855;48.112;11.298;2023-12-20T02:39:36;0.70;;;0.60;;
13566;SDS011;6855;48.112;11.298;2023-12-20T02:42:03;0.90;;;0.70;;
13566;SDS011;6855;48.112;11.298;2023-12-20T02:44:31;0.60;;;0.60;;
13566;SDS011;6855;48.112;11.298;2023-12-20T02:46:58;0.83;;;0.70;;
13566;SDS011;6855;48.112;11.298;2023-12-20T02:49:25;1.37;;;0.80;;
13566;SDS011;6855;48.112;11.298;2023-12-20T02:51:52;0.90;;;0.60;;
13566;SDS011;6855;48.112;11.298;2023-12-20T02:54:19;0.80;;;0.70;;
13566;SDS011;6855;48.112;11.298;2023-12-20T02:56:48;0.90;;;0.80;;
13566;SDS011;6855;48.112;11.298;2023-12-20T02:59:15;0.70;;;0.60;;
13566;SDS011;6855;48.112;11.298;2023-12-20T03:01:43;1.80;;;0.77;;
13566;SDS011;6855;48.112;11.298;2023-12-20T03:04:10;1.20;;;0.77;;
13566;SDS011;6855;48.112;11.298;2023-12-20T03:06:37;0.60;;;0.60;;
13566;SDS011;6855;48.112;11.298;2023-12-20T03:09:04;1.27;;;0.80;;
13566;SDS011;6855;48.112;11.298;2023-12-20T03:11:32;0.70;;;0.60;;
13566;SDS011;6855;48.112;11.298;2023-12-20T03:14:01;0.70;;;0.63;;
13566;SDS011;6855;48.112;11.298;2023-12-20T03:16:28;0.73;;;0.70;;
13566;SDS011;6855;48.112;11.298;2023-12-20T03:18:56;0.70;;;0.63;;
13566;SDS011;6855;48.112;11.298;2023-12-20T03:21:23;0.67;;;0.67;;
13566;SDS011;6855;48.112;11.298;2023-12-20T03:23:50;1.23;;;0.70;;
13566;SDS011;6855;48.112;11.298;2023-12-20T03:26:17;1.37;;;0.80;;
13566;SDS011;6855;48.112;11.298;2023-12-20T03:28:45;0.70;;;0.60;;
13566;SDS011;6855;48.112;11.298;2023-12-20T03:31:14;0.70;;;0.67;;
13566;SDS011;6855;48.112;11.298;2023-12-20T03:33:42;1.00;;;0.90;;
13566;SDS011;6855;48.112;11.298;2023-12-20T03:36:09;1.13;;;0.73;;
13566;SDS011;6855;48.112;11.298;2023-12-20T03:38:36;0.60;;;0.60;;
13566;SDS011;6855;48.112;11.298;2023-12-20T03:41:04;0.90;;;0.70;;
13566;SDS011;6855;48.112;11.298;2023-12-20T03:43:31;2.80;;;0.87;;
13566;SDS011;6855;48.112;11.298;2023-12-20T03:45:58;0.67;;;0.60;;
13566;SDS011;6855;48.112;11.298;2023-12-20T03:48:27;0.93;;;0.80;;
13566;SDS011;6855;48.112;11.298;2023-12-20T03:50:54;0.70;;;0.60;;
13566;SDS011;6855;48.112;11.298;2023-12-20T03:53:21;0.77;;;0.77;;
13566;SDS011;6855;48.112;11.298;2023-12-20T03:55:48;0.90;;;0.80;;
13566;SDS011;6855;48.112;11.298;2023-12-20T03:58:15;1.20;;;0.80;;
13566;SDS011;6855;48.112;11.298;2023-12-20T04:00:42;0.60;;;0.60;;
13566;SDS011;6855;48.112;11.298;2023-12-20T04:03:10;1.07;;;0.70;;
13566;SDS011;6855;48.112;11.298;2023-12-20T04:05:39;1.00;;;0.70;;
13566;SDS011;6855;48.112;11.298;2023-12-20T04:08:07;0.87;;;0.83;;
13566;SDS011;6855;48.112;11.298;2023-12-20T04:10:34;2.60;;;0.97;;
13566;SDS011;6855;48.112;11.298;2023-12-20T04:13:02;0.90;;;0.73;;
13566;SDS011;6855;48.112;11.298;2023-12-20T04:15:30;0.90;;;0.80;;
13566;SDS011;6855;48.112;11.298;2023-12-20T04:17:57;1.17;;;0.90;;
13566;SDS011;6855;48.112;11.298;2023-12-20T04:20:24;1.00;;;0.80;;
13566;SDS011;6855;48.112;11.298;2023-12-20T04:22:52;1.00;;;0.80;;
13566;SDS011;6855;48.112;11.298;2023-12-20T04:25:19;0.80;;;0.80;;
13566;SDS011;6855;48.112;11.298;2023-12-20T04:27:47;0.83;;;0.80;;
13566;SDS011;6855;48.112;11.298;2023-12-20T04:30:14;1.17;;;0.70;;
13566;SDS011;6855;48.112;11.298;2023-12-20T04:32:41;0.97;;;0.97;;
13566;SDS011;6855;48.112;11.298;2023-12-20T04:35:08;1.10;;;0.87;;
13566;SDS011;6855;48.112;11.298;2023-12-20T04:37:35;2.50;;;1.20;;
13566;SDS011;6855;48.112;11.298;2023-12-20T04:40:04;2.23;;;1.00;;
13566;SDS011;6855;48.112;11.298;2023-12-20T04:42:33;1.70;;;1.20;;
13566;SDS011;6855;48.112;11.298;2023-12-20T04:45:00;1.37;;;0.90;;
13566;SDS011;6855;48.112;11.298;2023-12-20T04:47:28;1.40;;;1.30;;
13566;SDS011;6855;48.112;11.298;2023-12-20T04:49:55;1.80;;;1.20;;
13566;SDS011;6855;48.112;11.298;2023-12-20T04:52:22;2.40;;;1.33;;
13566;SDS011;6855;48.112;11.298;2023-12-20T04:54:49;2.40;;;1.53;;
13566;SDS011;6855;48.112;11.298;2023-12-20T04:57:18;1.63;;;1.20;;
13566;SDS011;6855;48.112;11.298;2023-12-20T04:59:45;1.60;;;1.23;;
13566;SDS011;6855;48.112;11.298;2023-12-20T05:02:12;1.77;;;1.47;;
13566;SDS011;6855;48.112;11.298;2023-12-20T05:04:39;1.60;;;1.17;;
13566;SDS011;6855;48.112;11.298;2023-12-20T05:07:07;2.27;;;1.40;;
13566;SDS011;6855;48.112;11.298;2023-12-20T05:09:34;1.30;;;1.20;;
13566;SDS011;6855;48.112;11.298;2023-12-20T05:12:02;1.43;;;1.33;;
13566;SDS011;6855;48.112;11.298;2023-12-20T05:14:30;2.53;;;1.60;;
13566;SDS011;6855;48.112;11.298;2023-12-20T05:16:58;1.87;;;1.50;;
13566;SDS011;6855;48.112;11.298;2023-12-20T05:19:25;1.73;;;1.50;;
13566;SDS011;6855;48.112;11.298;2023-12-20T05:21:52;2.10;;;1.30;;
13566;SDS011;6855;48.112;11.298;2023-12-20T05:24:19;2.03;;;1.83;;
13566;SDS011;6855;48.112;11.298;2023-12-20T05:26:46;1.70;;;1.23;;
13566;SDS011;6855;48.112;11.298;2023-12-20T05:29:14;2.20;;;1.70;;
13566;SDS011;6855;48.112;11.298;2023-12-20T05:31:43;2.00;;;1.50;;
13566;SDS011;6855;48.112;11.298;2023-12-20T05:34:10;3.17;;;1.87;;
13566;SDS011;6855;48.112;11.298;2023-12-20T05:36:37;1.70;;;1.60;;
13566;SDS011;6855;48.112;11.298;2023-12-20T05:39:05;2.20;;;1.70;;
13566;SDS011;6855;48.112;11.298;2023-12-20T05:41:32;2.80;;;1.60;;
13566;SDS011;6855;48.112;11.298;2023-12-20T05:44:00;1.93;;;1.30;;
13566;SDS011;6855;48.112;11.298;2023-12-20T05:46:27;3.63;;;1.40;;
13566;SDS011;6855;48.112;11.298;2023-12-20T05:48:55;2.27;;;1.60;;
13566;SDS011;6855;48.112;11.298;2023-12-20T05:51:23;1.97;;;1.73;;
13566;SDS011;6855;48.112;11.298;2023-12-20T05:53:50;1.33;;;1.07;;
13566;SDS011;6855;48.112;11.298;2023-12-20T05:56:17;1.93;;;1.57;;
13566;SDS011;6855;48.112;11.298;2023-12-20T05:58:44;2.13;;;1.50;;
13566;SDS011;6855;48.112;11.298;2023-12-20T06:01:11;2.10;;;1.63;;
13566;SDS011;6855;48.112;11.298;2023-12-20T06:03:40;2.27;;;1.67;;
13566;SDS011;6855;48.112;11.298;2023-12-20T06:06:09;1.70;;;1.60;;
13566;SDS011;6855;48.112;11.298;2023-12-20T06:08:36;2.27;;;1.30;;
13566;SDS011;6855;48.112;11.298;2023-12-20T06:11:03;1.40;;;1.30;;
13566;SDS011;6855;48.112;11.298;2023-12-20T06:13:30;1.63;;;1.10;;
13566;SDS011;6855;48.112;11.298;2023-12-20T06:15:58;1.90;;;1.63;;
13566;SDS011;6855;48.112;11.298;2023-12-20T06:18:25;2.50;;;1.70;;
13566;SDS011;6855;48.112;11.298;2023-12-20T06:20:52;1.90;;;1.53;;
13566;SDS011;6855;48.112;11.298;2023-12-20T06:23:21;1.87;;;1.57;;
13566;SDS011;6855;48.112;11.298;2023-12-20T06:25:48;2.37;;;1.70;;
13566;SDS011;6855;48.112;11.298;2023-12-20T06:28:15;1.97;;;1.23;;
13566;SDS011;6855;48.112;11.298;2023-12-20T06:30:42;1.77;;;1.30;;
13566;SDS011;6855;48.112;11.298;2023-12-20T06:33:11;1.57;;;1.37;;
13566;SDS011;6855;48.112;11.298;2023-12-20T06:35:38;4.40;;;1.50;;
13566;SDS011;6855;48.112;11.298;2023-12-20T06:38:05;1.23;;;1.13;;
13566;SDS011;6855;48.112;11.298;2023-12-20T06:40:35;2.60;;;1.23;;
13566;SDS011;6855;48.112;11.298;2023-12-20T06:43:03;1.70;;;1.30;;
13566;SDS011;6855;48.112;11.298;2023-12-20T06:45:31;1.27;;;1.10;;
13566;SDS011;6855;48.112;11.298;2023-12-20T06:47:58;1.83;;;1.00;;
13566;SDS011;6855;48.112;11.298;2023-12-20T06:50:26;1.20;;;1.10;;
13566;SDS011;6855;48.112;11.298;2023-12-20T06:52:53;1.90;;;1.13;;
13566;SDS011;6855;48.112;11.298;2023-12-20T06:55:20;1.00;;;0.80;;
13566;SDS011;6855;48.112;11.298;2023-12-20T06:57:49;3.77;;;1.20;;
13566;SDS011;6855;48.112;11.298;2023-12-20T07:00:17;1.97;;;0.90;;
13566;SDS011;6855;48.112;11.298;2023-12-20T07:02:45;1.97;;;1.30;;
13566;SDS011;6855;48.112;11.298;2023-12-20T07:05:15;0.90;;;0.70;;
13566;SDS011;6855;48.112;11.298;2023-12-20T07:07:44;1.00;;;0.90;;
13566;SDS011;6855;48.112;11.298;2023-12-20T07:10:12;0.97;;;0.87;;
13566;SDS011;6855;48.112;11.298;2023-12-20T07:12:39;1.27;;;0.97;;
13566;SDS011;6855;48.112;11.298;2023-12-20T07:15:08;0.77;;;0.67;;
13566;SDS011;6855;48.112;11.298;2023-12-20T07:17:35;4.00;;;1.03;;
13566;SDS011;6855;48.112;11.298;2023-12-20T07:20:02;2.50;;;0.77;;
13566;SDS011;6855;48.112;11.298;2023-12-20T07:22:31;1.20;;;0.90;;
13566;SDS011;6855;48.112;11.298;2023-12-20T07:24:58;2.90;;;0.97;;
13566;SDS011;6855;48.112;11.298;2023-12-20T07:27:26;0.77;;;0.77;;
13566;SDS011;6855;48.112;11.298;2023-12-20T07:29:53;1.10;;;0.90;;
13566;SDS011;6855;48.112;11.298;2023-12-20T07:32:21;1.63;;;0.97;;
13566;SDS011;6855;48.112;11.298;2023-12-20T07:34:48;1.47;;;1.10;;
13566;SDS011;6855;48.112;11.298;2023-12-20T07:37:16;1.00;;;0.90;;
13566;SDS011;6855;48.112;11.298;2023-12-20T07:39:43;2.90;;;1.10;;
13566;SDS011;6855;48.112;11.298;2023-12-20T07:42:10;1.10;;;1.00;;
13566;SDS011;6855;48.112;11.298;2023-12-20T07:44:37;0.90;;;0.80;;
13566;SDS011;6855;48.112;11.298;2023-12-20T07:47:04;1.03;;;0.83;;
13566;SDS011;6855;48.112;11.298;2023-12-20T07:49:33;0.97;;;0.80;;
13566;SDS011;6855;48.112;11.298;2023-12-20T07:52:00;1.67;;;0.70;;
13566;SDS011;6855;48.112;11.298;2023-12-20T07:54:27;1.23;;;0.60;;
13566;SDS011;6855;48.112;11.298;2023-12-20T07:56:55;1.00;;;0.80;;
13566;SDS011;6855;48.112;11.298;2023-12-20T07:59:22;0.80;;;0.50;;
13566;SDS011;6855;48.112;11.298;2023-12-20T08:01:49;0.60;;;0.60;;
13566;SDS011;6855;48.112;11.298;2023-12-20T08:04:16;0.70;;;0.70;;
13566;SDS011;6855;48.112;11.298;2023-12-20T08:06:45;0.80;;;0.60;;
13566;SDS011;6855;48.112;11.298;2023-12-20T08:09:12;0.80;;;0.57;;
13566;SDS011;6855;48.112;11.298;2023-12-20T08:11:39;0.70;;;0.50;;
13566;SDS011;6855;48.112;11.298;2023-12-20T08:14:06;0.50;;;0.50;;
13566;SDS011;6855;48.112;11.298;2023-12-20T08:16:33;0.70;;;0.50;;
13566;SDS011;6855;48.112;11.298;2023-12-20T08:19:00;0.90;;;0.73;;
13566;SDS011;6855;48.112;11.298;2023-12-20T08:21:27;0.70;;;0.70;;
13566;SDS011;6855;48.112;11.298;2023-12-20T08:23:56;1.20;;;0.60;;
13566;SDS011;6855;48.112;11.298;2023-12-20T08:26:25;0.73;;;0.67;;
13566;SDS011;6855;48.112;11.298;2023-12-20T08:28:52;1.00;;;0.70;;
13566;SDS011;6855;48.112;11.298;2023-12-20T08:31:20;0.60;;;0.60;;
13566;SDS011;6855;48.112;11.298;2023-12-20T08:33:47;0.87;;;0.80;;
13566;SDS011;6855;48.112;11.298;2023-12-20T08:36:15;1.17;;;0.77;;
13566;SDS011;6855;48.112;11.298;2023-12-20T08:38:43;0.60;;;0.60;;
13566;SDS011;6855;48.112;11.298;2023-12-20T08:41:11;2.30;;;0.80;;
13566;SDS011;6855;48.112;11.298;2023-12-20T08:43:38;1.70;;;0.93;;
13566;SDS011;6855;48.112;11.298;2023-12-20T08:46:06;1.10;;;0.90;;
13566;SDS011;6855;48.112;11.298;2023-12-20T08:48:34;0.77;;;0.70;;
13566;SDS011;6855;48.112;11.298;2023-12-20T08:51:02;0.70;;;0.70;;
13566;SDS011;6855;48.112;11.298;2023-12-20T08:53:29;1.20;;;0.70;;
13566;SDS011;6855;48.112;11.298;2023-12-20T08:55:56;0.80;;;0.80;;
13566;SDS011;6855;48.112;11.298;2023-12-20T08:58:27;0.73;;;0.63;;
13566;SDS011;6855;48.112;11.298;2023-12-20T09:00:54;2.63;;;1.17;;
13566;SDS011;6855;48.112;11.298;2023-12-20T09:03:22;0.80;;;0.70;;
13566;SDS011;6855;48.112;11.298;2023-12-20T09:05:49;0.67;;;0.67;;
13566;SDS011;6855;48.112;11.298;2023-12-20T09:08:16;2.30;;;0.70;;
13566;SDS011;6855;48.112;11.298;2023-12-20T09:10:44;1.23;;;0.70;;
13566;SDS011;6855;48.112;11.298;2023-12-20T09:13:11;3.10;;;0.80;;
13566;SDS011;6855;48.112;11.298;2023-12-20T09:15:39;1.43;;;0.70;;
13566;SDS011;6855;48.112;11.298;2023-12-20T09:18:06;1.10;;;0.60;;
13566;SDS011;6855;48.112;11.298;2023-12-20T09:20:35;1.20;;;0.60;;
13566;SDS011;6855;48.112;11.298;2023-12-20T09:23:02;0.80;;;0.70;;
13566;SDS011;6855;48.112;11.298;2023-12-20T09:25:29;0.70;;;0.70;;
13566;SDS011;6855;48.112;11.298;2023-12-20T09:27:56;0.50;;;0.50;;
13566;SDS011;6855;48.112;11.298;2023-12-20T09:30:23;1.00;;;0.63;;
13566;SDS011;6855;48.112;11.298;2023-12-20T09:32:53;3.90;;;0.70;;
13566;SDS011;6855;48.112;11.298;2023-12-20T09:35:20;0.90;;;0.80;;
13566;SDS011;6855;48.112;11.298;2023-12-20T09:37:47;1.07;;;0.63;;
13566;SDS011;6855;48.112;11.298;2023-12-20T09:40:14;0.80;;;0.70;;
13566;SDS011;6855;48.112;11.298;2023-12-20T09:42:46;0.60;;;0.60;;
13566;SDS011;6855;48.112;11.298;2023-12-20T09:45:15;0.80;;;0.70;;
13566;SDS011;6855;48.112;11.298;2023-12-20T09:47:43;1.00;;;0.70;;
13566;SDS011;6855;48.112;11.298;2023-12-20T09:50:12;0.80;;;0.77;;
13566;SDS011;6855;48.112;11.298;2023-12-20T09:52:39;1.13;;;0.90;;
13566;SDS011;6855;48.112;11.298;2023-12-20T09:55:07;1.00;;;0.67;;
13566;SDS011;6855;48.112;11.298;2023-12-20T09:57:34;1.00;;;0.80;;
13566;SDS011;6855;48.112;11.298;2023-12-20T10:00:02;1.57;;;0.87;;
13566;SDS011;6855;48.112;11.298;2023-12-20T10:02:30;1.53;;;0.70;;
13566;SDS011;6855;48.112;11.298;2023-12-20T10:04:59;0.70;;;0.63;;
13566;SDS011;6855;48.112;11.298;2023-12-20T10:07:29;2.30;;;0.80;;
13566;SDS011;6855;48.112;11.298;2023-12-20T10:09:57;0.70;;;0.70;;
13566;SDS011;6855;48.112;11.298;2023-12-20T10:12:24;1.27;;;0.70;;
13566;SDS011;6855;48.112;11.298;2023-12-20T10:14:51;1.53;;;0.90;;
13566;SDS011;6855;48.112;11.298;2023-12-20T10:17:18;1.27;;;1.10;;
13566;SDS011;6855;48.112;11.298;2023-12-20T10:19:45;2.10;;;0.87;;
13566;SDS011;6855;48.112;11.298;2023-12-20T10:22:12;1.13;;;0.70;;
13566;SDS011;6855;48.112;11.298;2023-12-20T10:24:41;1.07;;;0.93;;
13566;SDS011;6855;48.112;11.298;2023-12-20T10:27:08;1.40;;;0.80;;
13566;SDS011;6855;48.112;11.298;2023-12-20T10:29:35;2.20;;;0.80;;
13566;SDS011;6855;48.112;11.298;2023-12-20T10:32:21;0.77;;;0.73;;
13566;SDS011;6855;48.112;11.298;2023-12-20T10:34:49;1.00;;;0.90;;
13566;SDS011;6855;48.112;11.298;2023-12-20T10:37:16;1.23;;;0.90;;
13566;SDS011;6855;48.112;11.298;2023-12-20T10:39:44;3.87;;;1.40;;
13566;SDS011;6855;48.112;11.298;2023-12-20T10:42:15;3.10;;;1.60;;
13566;SDS011;6855;48.112;11.298;2023-12-20T10:44:42;2.27;;;1.53;;
13566;SDS011;6855;48.112;11.298;2023-12-20T10:47:09;3.60;;;1.37;;
13566;SDS011;6855;48.112;11.298;2023-12-20T10:49:38;3.10;;;0.90;;
13566;SDS011;6855;48.112;11.298;2023-12-20T10:52:06;1.20;;;0.93;;
13566;SDS011;6855;48.112;11.298;2023-12-20T10:54:33;1.00;;;0.90;;
13566;SDS011;6855;48.112;11.298;2023-12-20T10:57:02;1.03;;;0.93;;
13566;SDS011;6855;48.112;11.298;2023-12-20T10:59:31;1.47;;;1.00;;
13566;SDS011;6855;48.112;11.298;2023-12-20T11:02:00;1.00;;;0.80;;
13566;SDS011;6855;48.112;11.298;2023-12-20T11:04:31;1.03;;;0.90;;
13566;SDS011;6855;48.112;11.298;2023-12-20T11:07:04;1.13;;;0.90;;
13566;SDS011;6855;48.112;11.298;2023-12-20T11:09:34;2.73;;;1.00;;
13566;SDS011;6855;48.112;11.298;2023-12-20T11:12:07;1.67;;;1.27;;
13566;SDS011;6855;48.112;11.298;2023-12-20T11:14:38;1.57;;;1.30;;
13566;SDS011;6855;48.112;11.298;2023-12-20T11:17:09;1.30;;;1.20;;
13566;SDS011;6855;48.112;11.298;2023-12-20T11:19:43;1.90;;;1.10;;
13566;SDS011;6855;48.112;11.298;2023-12-20T11:22:30;1.37;;;1.13;;
13566;SDS011;6855;48.112;11.298;2023-12-20T11:24:59;1.00;;;0.90;;
13566;SDS011;6855;48.112;11.298;2023-12-20T11:27:31;1.83;;;1.30;;
13566;SDS011;6855;48.112;11.298;2023-12-20T11:29:58;1.93;;;1.00;;
13566;SDS011;6855;48.112;11.298;2023-12-20T11:32:29;1.70;;;1.20;;
13566;SDS011;6855;48.112;11.298;2023-12-20T11:34:56;2.40;;;1.67;;
13566;SDS011;6855;48.112;11.298;2023-12-20T11:37:28;1.10;;;1.00;;
13566;SDS011;6855;48.112;11.298;2023-12-20T11:39:59;1.20;;;1.10;;
13566;SDS011;6855;48.112;11.298;2023-12-20T11:42:27;1.03;;;0.97;;
13566;SDS011;6855;48.112;11.298;2023-12-20T11:44:57;2.33;;;1.20;;
13566;SDS011;6855;48.112;11.298;2023-12-20T11:47:24;1.50;;;1.30;;
13566;SDS011;6855;48.112;11.298;2023-12-20T11:49:51;1.17;;;1.07;;
13566;SDS011;6855;48.112;11.298;2023-12-20T11:52:19;1.27;;;1.00;;
13566;SDS011;6855;48.112;11.298;2023-12-20T11:54:46;1.73;;;1.23;;
13566;SDS011;6855;48.112;11.298;2023-12-20T11:57:13;2.00;;;1.10;;
13566;SDS011;6855;48.112;11.298;2023-12-20T11:59:40;1.70;;;1.33;;
13566;SDS011;6855;48.112;11.298;2023-12-20T12:02:11;2.03;;;1.13;;
13566;SDS011;6855;48.112;11.298;2023-12-20T12:04:40;2.03;;;1.30;;
13566;SDS011;6855;48.112;11.298;2023-12-20T12:07:08;1.27;;;1.17;;
13566;SDS011;6855;48.112;11.298;2023-12-20T12:09:35;2.90;;;1.27;;
13566;SDS011;6855;48.112;11.298;2023-12-20T12:12:01;1.20;;;1.00;;
13566;SDS011;6855;48.112;11.298;2023-12-20T12:14:28;1.20;;;1.10;;
13566;SDS011;6855;48.112;11.298;2023-12-20T12:16:56;2.00;;;1.20;;
13566;SDS011;6855;48.112;11.298;2023-12-20T12:19:24;1.10;;;1.00;;
13566;SDS011;6855;48.112;11.298;2023-12-20T12:22:03;1.30;;;1.20;;
13566;SDS011;6855;48.112;11.298;2023-12-20T12:24:32;0.90;;;0.90;;
13566;SDS011;6855;48.112;11.298;2023-12-20T12:26:59;1.20;;;1.10;;
13566;SDS011;6855;48.112;11.298;2023-12-20T12:29:27;9.20;;;1.43;;
13566;SDS011;6855;48.112;11.298;2023-12-20T12:31:54;1.03;;;0.97;;
13566;SDS011;6855;48.112;11.298;2023-12-20T12:34:21;2.10;;;1.00;;
13566;SDS011;6855;48.112;11.298;2023-12-20T12:36:50;1.10;;;0.90;;
13566;SDS011;6855;48.112;11.298;2023-12-20T12:39:17;1.20;;;1.10;;
13566;SDS011;6855;48.112;11.298;2023-12-20T12:41:44;1.20;;;1.03;;
13566;SDS011;6855;48.112;11.298;2023-12-20T12:44:11;1.30;;;1.20;;
13566;SDS011;6855;48.112;11.298;2023-12-20T12:46:39;3.23;;;1.60;;
13566;SDS011;6855;48.112;11.298;2023-12-20T12:49:06;1.20;;;1.10;;
13566;SDS011;6855;48.112;11.298;2023-12-20T12:51:33;1.13;;;0.97;;
13566;SDS011;6855;48.112;11.298;2023-12-20T12:54:02;1.23;;;0.90;;
13566;SDS011;6855;48.112;11.298;2023-12-20T12:56:29;1.03;;;0.97;;
13566;SDS011;6855;48.112;11.298;2023-12-20T12:58:56;1.20;;;1.10;;
13566;SDS011;6855;48.112;11.298;2023-12-20T13:01:23;1.00;;;0.90;;
13566;SDS011;6855;48.112;11.298;2023-12-20T13:03:51;1.47;;;1.37;;
13566;SDS011;6855;48.112;11.298;2023-12-20T13:06:19;2.40;;;1.63;;
13566;SDS011;6855;48.112;11.298;2023-12-20T13:08:46;1.90;;;1.60;;
13566;SDS011;6855;48.112;11.298;2023-12-20T13:11:14;4.10;;;1.73;;
13566;SDS011;6855;48.112;11.298;2023-12-20T13:13:42;3.33;;;1.50;;
13566;SDS011;6855;48.112;11.298;2023-12-20T13:16:09;2.10;;;1.83;;
13566;SDS011;6855;48.112;11.298;2023-12-20T13:18:36;1.40;;;1.30;;
13566;SDS011;6855;48.112;11.298;2023-12-20T13:21:07;1.87;;;1.47;;
13566;SDS011;6855;48.112;11.298;2023-12-20T13:23:34;2.37;;;1.70;;
13566;SDS011;6855;48.112;11.298;2023-12-20T13:26:01;2.30;;;2.03;;
13566;SDS011;6855;48.112;11.298;2023-12-20T13:28:30;1.30;;;1.20;;
13566;SDS011;6855;48.112;11.298;2023-12-20T13:30:57;1.27;;;1.17;;
13566;SDS011;6855;48.112;11.298;2023-12-20T13:33:24;2.20;;;1.40;;
13566;SDS011;6855;48.112;11.298;2023-12-20T13:35:51;3.20;;;1.33;;
13566;SDS011;6855;48.112;11.298;2023-12-20T13:38:18;3.67;;;1.67;;
13566;SDS011;6855;48.112;11.298;2023-12-20T13:40:45;1.73;;;1.57;;
13566;SDS011;6855;48.112;11.298;2023-12-20T13:43:13;1.30;;;1.10;;
13566;SDS011;6855;48.112;11.298;2023-12-20T13:45:47;2.60;;;1.50;;
13566;SDS011;6855;48.112;11.298;2023-12-20T13:48:14;4.83;;;1.73;;
13566;SDS011;6855;48.112;11.298;2023-12-20T13:50:41;4.60;;;1.50;;
13566;SDS011;6855;48.112;11.298;2023-12-20T13:53:08;5.63;;;2.00;;
13566;SDS011;6855;48.112;11.298;2023-12-20T13:55:35;4.03;;;1.97;;
13566;SDS011;6855;48.112;11.298;2023-12-20T13:58:02;5.87;;;2.30;;
13566;SDS011;6855;48.112;11.298;2023-12-20T14:00:30;5.20;;;2.40;;
13566;SDS011;6855;48.112;11.298;2023-12-20T14:02:58;2.73;;;1.40;;
13566;SDS011;6855;48.112;11.298;2023-12-20T14:05:26;2.93;;;1.43;;
13566;SDS011;6855;48.112;11.298;2023-12-20T14:07:53;4.10;;;1.60;;
13566;SDS011;6855;48.112;11.298;2023-12-20T14:10:22;1.57;;;1.40;;
13566;SDS011;6855;48.112;11.298;2023-12-20T14:12:51;4.40;;;1.20;;
13566;SDS011;6855;48.112;11.298;2023-12-20T14:15:18;2.93;;;1.50;;
13566;SDS011;6855;48.112;11.298;2023-12-20T14:17:45;2.47;;;1.40;;
13566;SDS011;6855;48.112;11.298;2023-12-20T14:20:14;2.00;;;1.70;;
13566;SDS011;6855;48.112;11.298;2023-12-20T14:22:41;4.40;;;1.53;;
13566;SDS011;6855;48.112;11.298;2023-12-20T14:25:10;1.43;;;1.33;;
13566;SDS011;6855;48.112;11.298;2023-12-20T14:27:38;2.80;;;1.10;;
13566;SDS011;6855;48.112;11.298;2023-12-20T14:30:05;3.37;;;2.20;;
13566;SDS011;6855;48.112;11.298;2023-12-20T14:32:34;2.13;;;1.30;;
13566;SDS011;6855;48.112;11.298;2023-12-20T14:35:03;4.50;;;2.00;;
13566;SDS011;6855;48.112;11.298;2023-12-20T14:37:32;3.03;;;1.20;;
13566;SDS011;6855;48.112;11.298;2023-12-20T14:39:59;1.67;;;1.30;;
13566;SDS011;6855;48.112;11.298;2023-12-20T14:42:26;5.80;;;2.03;;
13566;SDS011;6855;48.112;11.298;2023-12-20T14:44:53;2.67;;;2.10;;
13566;SDS011;6855;48.112;11.298;2023-12-20T14:47:20;2.73;;;1.80;;
13566;SDS011;6855;48.112;11.298;2023-12-20T14:49:48;2.43;;;1.80;;
13566;SDS011;6855;48.112;11.298;2023-12-20T14:52:17;2.03;;;1.10;;